sensor_id;sensor_type;location;lat;lon;timestamp;P1;durP1;ratioP1;P2;durP2;ratioP2
58665;SDS011;44436;52.872;6.520;2022-08-20T00:00:35;8.98;;;7.45;;
58665;SDS011;44436;52.872;6.520;2022-08-20T00:03:05;11.25;;;7.93;;
58665;SDS011;44436;52.872;6.520;2022-08-20T00:05:38;10.35;;;7.45;;
58665;SDS011;44436;52.872;6.520;2022-08-20T00:08:07;11.07;;;8.03;;
58665;SDS011;44436;52.872;6.520;2022-08-20T00:10:34;15.82;;;8.20;;
58665;SDS011;44436;52.872;6.520;2022-08-20T00:13:03;9.70;;;6.80;;
58665;SDS011;44436;52.872;6.520;2022-08-20T00:15:31;10.90;;;7.55;;
58665;SDS011;44436;52.872;6.520;2022-08-20T00:17:58;11.95;;;7.40;;
58665;SDS011;44436;52.872;6.520;2022-08-20T00:20:25;9.15;;;6.95;;
58665;SDS011;44436;52.872;6.520;2022-08-20T00:22:55;16.48;;;7.22;;
58665;SDS011;44436;52.872;6.520;2022-08-20T00:25:21;11.98;;;7.47;;
58665;SDS011;44436;52.872;6.520;2022-08-20T00:27:48;11.68;;;7.18;;
58665;SDS011;44436;52.872;6.520;2022-08-20T00:30:14;24.77;;;8.15;;
58665;SDS011;44436;52.872;6.520;2022-08-20T00:32:51;13.57;;;6.05;;
58665;SDS011;44436;52.872;6.520;2022-08-20T00:35:20;9.60;;;6.38;;
58665;SDS011;44436;52.872;6.520;2022-08-20T00:37:50;12.27;;;6.50;;
58665;SDS011;44436;52.872;6.520;2022-08-20T00:40:17;11.32;;;6.90;;
58665;SDS011;44436;52.872;6.520;2022-08-20T00:42:46;10.60;;;6.47;;
58665;SDS011;44436;52.872;6.520;2022-08-20T00:45:18;12.15;;;6.95;;
58665;SDS011;44436;52.872;6.520;2022-08-20T00:47:44;16.00;;;6.90;;
58665;SDS011;44436;52.872;6.520;2022-08-20T00:50:12;11.18;;;6.95;;
58665;SDS011;44436;52.872;6.520;2022-08-20T00:52:40;11.93;;;6.20;;
58665;SDS011;44436;52.872;6.520;2022-08-20T00:55:08;13.13;;;6.93;;
58665;SDS011;44436;52.872;6.520;2022-08-20T00:57:37;12.40;;;7.10;;
58665;SDS011;44436;52.872;6.520;2022-08-20T01:00:09;11.10;;;6.10;;
58665;SDS011;44436;52.872;6.520;2022-08-20T01:02:41;13.38;;;6.57;;
58665;SDS011;44436;52.872;6.520;2022-08-20T01:05:08;10.00;;;6.80;;
58665;SDS011;44436;52.872;6.520;2022-08-20T01:07:35;12.45;;;6.78;;
58665;SDS011;44436;52.872;6.520;2022-08-20T01:12:52;9.45;;;6.32;;
58665;SDS011;44436;52.872;6.520;2022-08-20T01:15:22;10.52;;;6.43;;
58665;SDS011;44436;52.872;6.520;2022-08-20T01:17:54;10.63;;;6.72;;
58665;SDS011;44436;52.872;6.520;2022-08-20T01:20:25;12.18;;;5.75;;
58665;SDS011;44436;52.872;6.520;2022-08-20T01:23:06;12.20;;;6.15;;
58665;SDS011;44436;52.872;6.520;2022-08-20T01:31:00;13.38;;;6.15;;
58665;SDS011;44436;52.872;6.520;2022-08-20T01:33:27;11.07;;;5.95;;
58665;SDS011;44436;52.872;6.520;2022-08-20T01:35:53;10.75;;;6.03;;
58665;SDS011;44436;52.872;6.520;2022-08-20T01:38:19;8.43;;;5.13;;
58665;SDS011;44436;52.872;6.520;2022-08-20T01:43:31;14.45;;;7.57;;
58665;SDS011;44436;52.872;6.520;2022-08-20T01:45:57;10.25;;;6.60;;
58665;SDS011;44436;52.872;6.520;2022-08-20T01:48:23;10.77;;;6.28;;
58665;SDS011;44436;52.872;6.520;2022-08-20T01:50:55;11.50;;;6.38;;
58665;SDS011;44436;52.872;6.520;2022-08-20T01:53:32;13.20;;;6.63;;
58665;SDS011;44436;52.872;6.520;2022-08-20T01:56:07;10.90;;;5.57;;
58665;SDS011;44436;52.872;6.520;2022-08-20T01:58:38;14.90;;;6.55;;
58665;SDS011;44436;52.872;6.520;2022-08-20T02:01:05;57.97;;;8.85;;
58665;SDS011;44436;52.872;6.520;2022-08-20T02:03:31;15.82;;;8.18;;
58665;SDS011;44436;52.872;6.520;2022-08-20T02:06:00;13.02;;;5.93;;
58665;SDS011;44436;52.872;6.520;2022-08-20T02:08:26;13.43;;;6.20;;
58665;SDS011;44436;52.872;6.520;2022-08-20T02:10:52;14.30;;;6.90;;
58665;SDS011;44436;52.872;6.520;2022-08-20T02:13:19;10.55;;;6.35;;
58665;SDS011;44436;52.872;6.520;2022-08-20T02:15:46;14.27;;;7.05;;
58665;SDS011;44436;52.872;6.520;2022-08-20T02:18:13;26.77;;;6.72;;
58665;SDS011;44436;52.872;6.520;2022-08-20T02:20:39;13.25;;;6.60;;
58665;SDS011;44436;52.872;6.520;2022-08-20T02:23:06;9.82;;;6.30;;
58665;SDS011;44436;52.872;6.520;2022-08-20T02:25:33;10.80;;;6.60;;
58665;SDS011;44436;52.872;6.520;2022-08-20T02:28:04;12.77;;;6.55;;
58665;SDS011;44436;52.872;6.520;2022-08-20T02:30:35;17.63;;;7.50;;
58665;SDS011;44436;52.872;6.520;2022-08-20T02:33:04;12.57;;;6.88;;
58665;SDS011;44436;52.872;6.520;2022-08-20T02:35:32;10.10;;;6.18;;
58665;SDS011;44436;52.872;6.520;2022-08-20T02:37:58;9.73;;;6.20;;
58665;SDS011;44436;52.872;6.520;2022-08-20T02:40:25;11.88;;;7.28;;
58665;SDS011;44436;52.872;6.520;2022-08-20T02:42:51;12.63;;;6.93;;
58665;SDS011;44436;52.872;6.520;2022-08-20T02:45:18;12.55;;;7.40;;
58665;SDS011;44436;52.872;6.520;2022-08-20T02:47:44;12.00;;;6.72;;
58665;SDS011;44436;52.872;6.520;2022-08-20T02:50:11;8.77;;;6.47;;
58665;SDS011;44436;52.872;6.520;2022-08-20T02:52:40;12.63;;;6.43;;
58665;SDS011;44436;52.872;6.520;2022-08-20T02:55:07;14.07;;;7.25;;
58665;SDS011;44436;52.872;6.520;2022-08-20T02:57:33;11.02;;;5.72;;
58665;SDS011;44436;52.872;6.520;2022-08-20T02:59:59;8.80;;;5.80;;
58665;SDS011;44436;52.872;6.520;2022-08-20T03:02:26;17.83;;;7.43;;
58665;SDS011;44436;52.872;6.520;2022-08-20T03:04:52;13.65;;;6.82;;
58665;SDS011;44436;52.872;6.520;2022-08-20T03:07:18;10.82;;;6.10;;
58665;SDS011;44436;52.872;6.520;2022-08-20T03:09:43;10.05;;;6.20;;
58665;SDS011;44436;52.872;6.520;2022-08-20T03:12:09;14.93;;;7.10;;
58665;SDS011;44436;52.872;6.520;2022-08-20T03:14:35;12.43;;;6.63;;
58665;SDS011;44436;52.872;6.520;2022-08-20T03:17:01;11.07;;;5.95;;
58665;SDS011;44436;52.872;6.520;2022-08-20T03:19:27;10.07;;;6.38;;
58665;SDS011;44436;52.872;6.520;2022-08-20T03:21:53;10.57;;;6.55;;
58665;SDS011;44436;52.872;6.520;2022-08-20T03:24:19;12.35;;;6.25;;
58665;SDS011;44436;52.872;6.520;2022-08-20T03:26:45;14.93;;;7.00;;
58665;SDS011;44436;52.872;6.520;2022-08-20T03:29:11;14.65;;;6.88;;
58665;SDS011;44436;52.872;6.520;2022-08-20T03:31:38;11.90;;;6.50;;
58665;SDS011;44436;52.872;6.520;2022-08-20T03:34:03;13.10;;;6.28;;
58665;SDS011;44436;52.872;6.520;2022-08-20T03:36:29;11.13;;;5.90;;
58665;SDS011;44436;52.872;6.520;2022-08-20T03:38:56;10.10;;;6.57;;
58665;SDS011;44436;52.872;6.520;2022-08-20T03:41:23;16.08;;;6.55;;
58665;SDS011;44436;52.872;6.520;2022-08-20T03:43:49;15.95;;;6.60;;
58665;SDS011;44436;52.872;6.520;2022-08-20T03:46:15;13.73;;;6.80;;
58665;SDS011;44436;52.872;6.520;2022-08-20T03:48:41;13.98;;;6.88;;
58665;SDS011;44436;52.872;6.520;2022-08-20T03:51:06;11.48;;;6.78;;
58665;SDS011;44436;52.872;6.520;2022-08-20T03:53:32;10.80;;;6.25;;
58665;SDS011;44436;52.872;6.520;2022-08-20T03:55:59;17.50;;;7.80;;
58665;SDS011;44436;52.872;6.520;2022-08-20T03:58:29;12.43;;;6.57;;
58665;SDS011;44436;52.872;6.520;2022-08-20T04:00:56;10.43;;;6.43;;
58665;SDS011;44436;52.872;6.520;2022-08-20T04:03:22;13.75;;;7.10;;
58665;SDS011;44436;52.872;6.520;2022-08-20T04:05:49;10.45;;;6.78;;
58665;SDS011;44436;52.872;6.520;2022-08-20T04:08:20;14.57;;;6.97;;
58665;SDS011;44436;52.872;6.520;2022-08-20T04:10:48;14.75;;;7.38;;
58665;SDS011;44436;52.872;6.520;2022-08-20T04:13:15;13.55;;;7.43;;
58665;SDS011;44436;52.872;6.520;2022-08-20T04:15:43;15.45;;;6.30;;
58665;SDS011;44436;52.872;6.520;2022-08-20T04:18:09;11.73;;;7.18;;
58665;SDS011;44436;52.872;6.520;2022-08-20T04:20:38;10.27;;;6.82;;
58665;SDS011;44436;52.872;6.520;2022-08-20T04:23:05;14.75;;;6.88;;
58665;SDS011;44436;52.872;6.520;2022-08-20T04:25:33;11.10;;;6.97;;
58665;SDS011;44436;52.872;6.520;2022-08-20T04:28:01;10.93;;;6.38;;
58665;SDS011;44436;52.872;6.520;2022-08-20T04:30:29;12.20;;;6.70;;
58665;SDS011;44436;52.872;6.520;2022-08-20T04:32:57;16.70;;;7.10;;
58665;SDS011;44436;52.872;6.520;2022-08-20T04:35:24;11.73;;;6.30;;
58665;SDS011;44436;52.872;6.520;2022-08-20T04:37:57;12.40;;;6.10;;
58665;SDS011;44436;52.872;6.520;2022-08-20T04:40:24;14.25;;;5.90;;
58665;SDS011;44436;52.872;6.520;2022-08-20T04:43:09;12.35;;;6.15;;
58665;SDS011;44436;52.872;6.520;2022-08-20T04:45:34;12.00;;;6.10;;
58665;SDS011;44436;52.872;6.520;2022-08-20T04:48:01;12.65;;;5.75;;
58665;SDS011;44436;52.872;6.520;2022-08-20T04:50:31;13.75;;;5.70;;
58665;SDS011;44436;52.872;6.520;2022-08-20T04:53:00;10.13;;;5.97;;
58665;SDS011;44436;52.872;6.520;2022-08-20T04:55:36;12.85;;;6.10;;
58665;SDS011;44436;52.872;6.520;2022-08-20T04:58:07;14.07;;;5.57;;
58665;SDS011;44436;52.872;6.520;2022-08-20T05:00:36;15.50;;;5.57;;
58665;SDS011;44436;52.872;6.520;2022-08-20T05:03:03;16.33;;;5.30;;
58665;SDS011;44436;52.872;6.520;2022-08-20T05:05:31;10.55;;;4.78;;
58665;SDS011;44436;52.872;6.520;2022-08-20T05:07:59;11.73;;;5.70;;
58665;SDS011;44436;52.872;6.520;2022-08-20T05:10:26;9.07;;;5.53;;
58665;SDS011;44436;52.872;6.520;2022-08-20T05:12:52;14.45;;;5.25;;
58665;SDS011;44436;52.872;6.520;2022-08-20T05:15:18;14.38;;;5.50;;
58665;SDS011;44436;52.872;6.520;2022-08-20T05:17:44;10.63;;;5.53;;
58665;SDS011;44436;52.872;6.520;2022-08-20T05:20:12;14.85;;;5.72;;
58665;SDS011;44436;52.872;6.520;2022-08-20T05:22:41;11.23;;;4.65;;
58665;SDS011;44436;52.872;6.520;2022-08-20T05:25:08;16.38;;;5.45;;
58665;SDS011;44436;52.872;6.520;2022-08-20T05:27:33;13.73;;;4.38;;
58665;SDS011;44436;52.872;6.520;2022-08-20T05:30:00;15.07;;;4.85;;
58665;SDS011;44436;52.872;6.520;2022-08-20T05:32:34;14.93;;;4.90;;
58665;SDS011;44436;52.872;6.520;2022-08-20T05:35:06;16.95;;;5.13;;
58665;SDS011;44436;52.872;6.520;2022-08-20T05:37:37;14.90;;;4.70;;
58665;SDS011;44436;52.872;6.520;2022-08-20T05:40:08;10.65;;;4.70;;
58665;SDS011;44436;52.872;6.520;2022-08-20T05:42:36;13.90;;;4.57;;
58665;SDS011;44436;52.872;6.520;2022-08-20T05:45:02;12.75;;;4.60;;
58665;SDS011;44436;52.872;6.520;2022-08-20T05:47:28;13.43;;;4.63;;
58665;SDS011;44436;52.872;6.520;2022-08-20T05:49:54;8.75;;;4.28;;
58665;SDS011;44436;52.872;6.520;2022-08-20T05:52:20;11.23;;;4.53;;
58665;SDS011;44436;52.872;6.520;2022-08-20T05:54:45;11.65;;;4.50;;
58665;SDS011;44436;52.872;6.520;2022-08-20T05:57:11;12.15;;;5.10;;
58665;SDS011;44436;52.872;6.520;2022-08-20T05:59:38;11.95;;;4.15;;
58665;SDS011;44436;52.872;6.520;2022-08-20T06:02:03;11.25;;;4.32;;
58665;SDS011;44436;52.872;6.520;2022-08-20T06:04:49;14.20;;;5.00;;
58665;SDS011;44436;52.872;6.520;2022-08-20T06:07:15;10.57;;;4.35;;
58665;SDS011;44436;52.872;6.520;2022-08-20T06:09:41;10.27;;;5.03;;
58665;SDS011;44436;52.872;6.520;2022-08-20T06:12:06;12.63;;;5.10;;
58665;SDS011;44436;52.872;6.520;2022-08-20T06:14:34;17.95;;;5.68;;
58665;SDS011;44436;52.872;6.520;2022-08-20T06:19:34;14.00;;;5.28;;
58665;SDS011;44436;52.872;6.520;2022-08-20T06:22:01;14.70;;;5.07;;
58665;SDS011;44436;52.872;6.520;2022-08-20T06:24:27;17.50;;;4.90;;
58665;SDS011;44436;52.872;6.520;2022-08-20T06:26:54;13.48;;;4.50;;
58665;SDS011;44436;52.872;6.520;2022-08-20T06:29:22;15.48;;;5.18;;
58665;SDS011;44436;52.872;6.520;2022-08-20T06:31:48;15.48;;;4.43;;
58665;SDS011;44436;52.872;6.520;2022-08-20T06:34:14;13.52;;;4.20;;
58665;SDS011;44436;52.872;6.520;2022-08-20T06:36:42;11.50;;;4.20;;
58665;SDS011;44436;52.872;6.520;2022-08-20T06:39:10;13.93;;;3.40;;
58665;SDS011;44436;52.872;6.520;2022-08-20T06:41:39;16.50;;;3.55;;
58665;SDS011;44436;52.872;6.520;2022-08-20T06:44:06;13.63;;;3.60;;
58665;SDS011;44436;52.872;6.520;2022-08-20T06:46:32;12.23;;;2.90;;
58665;SDS011;44436;52.872;6.520;2022-08-20T06:49:02;9.27;;;2.63;;
58665;SDS011;44436;52.872;6.520;2022-08-20T06:51:29;11.02;;;2.72;;
58665;SDS011;44436;52.872;6.520;2022-08-20T06:53:55;6.65;;;2.10;;
58665;SDS011;44436;52.872;6.520;2022-08-20T06:56:21;11.23;;;2.78;;
58665;SDS011;44436;52.872;6.520;2022-08-20T06:58:47;9.57;;;2.33;;
58665;SDS011;44436;52.872;6.520;2022-08-20T07:01:13;10.15;;;2.38;;
58665;SDS011;44436;52.872;6.520;2022-08-20T07:03:39;10.00;;;2.08;;
58665;SDS011;44436;52.872;6.520;2022-08-20T07:06:06;7.20;;;1.92;;
58665;SDS011;44436;52.872;6.520;2022-08-20T07:08:32;10.07;;;2.22;;
58665;SDS011;44436;52.872;6.520;2022-08-20T07:10:59;10.18;;;1.90;;
58665;SDS011;44436;52.872;6.520;2022-08-20T07:13:25;9.85;;;1.83;;
58665;SDS011;44436;52.872;6.520;2022-08-20T07:15:52;8.88;;;1.80;;
58665;SDS011;44436;52.872;6.520;2022-08-20T07:18:19;9.45;;;1.90;;
58665;SDS011;44436;52.872;6.520;2022-08-20T07:20:45;10.18;;;1.60;;
58665;SDS011;44436;52.872;6.520;2022-08-20T07:23:11;7.70;;;1.70;;
58665;SDS011;44436;52.872;6.520;2022-08-20T07:25:37;9.65;;;1.50;;
58665;SDS011;44436;52.872;6.520;2022-08-20T07:28:12;11.25;;;1.83;;
58665;SDS011;44436;52.872;6.520;2022-08-20T07:30:39;9.00;;;1.80;;
58665;SDS011;44436;52.872;6.520;2022-08-20T07:33:25;11.43;;;1.90;;
58665;SDS011;44436;52.872;6.520;2022-08-20T07:35:52;9.25;;;1.52;;
58665;SDS011;44436;52.872;6.520;2022-08-20T07:38:22;8.15;;;1.35;;
58665;SDS011;44436;52.872;6.520;2022-08-20T07:40:57;10.23;;;1.75;;
58665;SDS011;44436;52.872;6.520;2022-08-20T07:43:24;6.63;;;1.40;;
58665;SDS011;44436;52.872;6.520;2022-08-20T07:45:51;9.48;;;1.90;;
58665;SDS011;44436;52.872;6.520;2022-08-20T07:48:20;4.82;;;1.23;;
58665;SDS011;44436;52.872;6.520;2022-08-20T07:50:50;8.45;;;1.33;;
58665;SDS011;44436;52.872;6.520;2022-08-20T07:53:16;7.65;;;1.67;;
58665;SDS011;44436;52.872;6.520;2022-08-20T07:55:42;12.32;;;1.70;;
58665;SDS011;44436;52.872;6.520;2022-08-20T07:58:09;5.45;;;1.10;;
58665;SDS011;44436;52.872;6.520;2022-08-20T08:00:37;7.15;;;1.60;;
58665;SDS011;44436;52.872;6.520;2022-08-20T08:03:04;10.25;;;1.50;;
58665;SDS011;44436;52.872;6.520;2022-08-20T08:05:33;8.90;;;1.38;;
58665;SDS011;44436;52.872;6.520;2022-08-20T08:08:02;7.93;;;1.25;;
58665;SDS011;44436;52.872;6.520;2022-08-20T08:10:32;10.77;;;1.60;;
58665;SDS011;44436;52.872;6.520;2022-08-20T08:12:59;7.15;;;1.17;;
58665;SDS011;44436;52.872;6.520;2022-08-20T08:15:29;6.32;;;1.45;;
58665;SDS011;44436;52.872;6.520;2022-08-20T08:17:59;7.45;;;1.10;;
58665;SDS011;44436;52.872;6.520;2022-08-20T08:20:29;8.25;;;1.50;;
58665;SDS011;44436;52.872;6.520;2022-08-20T08:22:55;5.93;;;1.30;;
58665;SDS011;44436;52.872;6.520;2022-08-20T08:25:21;10.07;;;1.60;;
58665;SDS011;44436;52.872;6.520;2022-08-20T08:27:47;7.78;;;1.48;;
58665;SDS011;44436;52.872;6.520;2022-08-20T08:30:13;4.22;;;1.00;;
58665;SDS011;44436;52.872;6.520;2022-08-20T08:32:40;8.48;;;1.67;;
58665;SDS011;44436;52.872;6.520;2022-08-20T08:35:26;6.65;;;1.20;;
58665;SDS011;44436;52.872;6.520;2022-08-20T08:37:53;6.68;;;1.23;;
58665;SDS011;44436;52.872;6.520;2022-08-20T08:40:22;7.95;;;1.25;;
58665;SDS011;44436;52.872;6.520;2022-08-20T08:42:48;6.65;;;1.20;;
58665;SDS011;44436;52.872;6.520;2022-08-20T08:45:22;7.20;;;1.67;;
58665;SDS011;44436;52.872;6.520;2022-08-20T08:47:51;7.95;;;1.50;;
58665;SDS011;44436;52.872;6.520;2022-08-20T08:50:22;4.93;;;1.20;;
58665;SDS011;44436;52.872;6.520;2022-08-20T08:52:51;3.88;;;0.88;;
58665;SDS011;44436;52.872;6.520;2022-08-20T08:55:23;5.03;;;1.20;;
58665;SDS011;44436;52.872;6.520;2022-08-20T08:57:50;7.07;;;0.98;;
58665;SDS011;44436;52.872;6.520;2022-08-20T09:00:20;8.27;;;1.10;;
58665;SDS011;44436;52.872;6.520;2022-08-20T09:02:54;6.55;;;1.10;;
58665;SDS011;44436;52.872;6.520;2022-08-20T09:05:36;4.30;;;1.08;;
58665;SDS011;44436;52.872;6.520;2022-08-20T09:08:08;6.32;;;1.15;;
58665;SDS011;44436;52.872;6.520;2022-08-20T09:10:37;3.90;;;0.93;;
58665;SDS011;44436;52.872;6.520;2022-08-20T09:13:03;6.03;;;1.27;;
58665;SDS011;44436;52.872;6.520;2022-08-20T09:15:30;4.13;;;1.05;;
58665;SDS011;44436;52.872;6.520;2022-08-20T09:17:56;7.40;;;1.20;;
58665;SDS011;44436;52.872;6.520;2022-08-20T09:20:21;7.20;;;1.33;;
58665;SDS011;44436;52.872;6.520;2022-08-20T09:22:47;6.32;;;1.88;;
58665;SDS011;44436;52.872;6.520;2022-08-20T09:25:13;5.65;;;1.15;;
58665;SDS011;44436;52.872;6.520;2022-08-20T09:27:38;5.22;;;1.23;;
58665;SDS011;44436;52.872;6.520;2022-08-20T09:30:04;6.53;;;1.20;;
58665;SDS011;44436;52.872;6.520;2022-08-20T09:32:30;4.50;;;1.10;;
58665;SDS011;44436;52.872;6.520;2022-08-20T09:34:56;3.75;;;1.02;;
58665;SDS011;44436;52.872;6.520;2022-08-20T09:37:27;3.53;;;1.08;;
58665;SDS011;44436;52.872;6.520;2022-08-20T09:39:54;9.20;;;1.60;;
58665;SDS011;44436;52.872;6.520;2022-08-20T09:42:24;6.38;;;1.48;;
58665;SDS011;44436;52.872;6.520;2022-08-20T09:44:52;6.00;;;1.13;;
58665;SDS011;44436;52.872;6.520;2022-08-20T09:47:18;8.32;;;1.40;;
58665;SDS011;44436;52.872;6.520;2022-08-20T09:49:44;6.25;;;1.15;;
58665;SDS011;44436;52.872;6.520;2022-08-20T09:52:15;7.03;;;1.17;;
58665;SDS011;44436;52.872;6.520;2022-08-20T09:55:04;5.75;;;1.17;;
58665;SDS011;44436;52.872;6.520;2022-08-20T09:57:43;4.53;;;1.40;;
58665;SDS011;44436;52.872;6.520;2022-08-20T10:00:10;5.05;;;1.15;;
58665;SDS011;44436;52.872;6.520;2022-08-20T10:02:36;4.97;;;0.98;;
58665;SDS011;44436;52.872;6.520;2022-08-20T10:05:03;4.65;;;1.17;;
58665;SDS011;44436;52.872;6.520;2022-08-20T10:07:29;6.55;;;1.33;;
58665;SDS011;44436;52.872;6.520;2022-08-20T10:09:55;7.25;;;1.30;;
58665;SDS011;44436;52.872;6.520;2022-08-20T10:12:20;5.35;;;1.48;;
58665;SDS011;44436;52.872;6.520;2022-08-20T10:14:46;6.47;;;1.40;;
58665;SDS011;44436;52.872;6.520;2022-08-20T10:17:12;7.78;;;1.67;;
58665;SDS011;44436;52.872;6.520;2022-08-20T10:19:38;6.93;;;1.42;;
58665;SDS011;44436;52.872;6.520;2022-08-20T10:22:03;6.03;;;1.10;;
58665;SDS011;44436;52.872;6.520;2022-08-20T10:24:29;9.95;;;1.20;;
58665;SDS011;44436;52.872;6.520;2022-08-20T10:26:56;7.90;;;1.30;;
58665;SDS011;44436;52.872;6.520;2022-08-20T10:29:23;4.20;;;1.00;;
58665;SDS011;44436;52.872;6.520;2022-08-20T10:31:50;8.38;;;1.05;;
58665;SDS011;44436;52.872;6.520;2022-08-20T10:34:16;5.35;;;1.55;;
58665;SDS011;44436;52.872;6.520;2022-08-20T10:36:42;4.97;;;1.70;;
58665;SDS011;44436;52.872;6.520;2022-08-20T10:39:09;3.45;;;0.90;;
58665;SDS011;44436;52.872;6.520;2022-08-20T10:41:34;5.10;;;1.27;;
58665;SDS011;44436;52.872;6.520;2022-08-20T10:44:00;5.75;;;1.13;;
58665;SDS011;44436;52.872;6.520;2022-08-20T10:46:26;4.60;;;1.45;;
58665;SDS011;44436;52.872;6.520;2022-08-20T10:48:52;8.57;;;1.30;;
58665;SDS011;44436;52.872;6.520;2022-08-20T10:51:17;5.50;;;1.30;;
58665;SDS011;44436;52.872;6.520;2022-08-20T10:53:43;4.85;;;0.90;;
58665;SDS011;44436;52.872;6.520;2022-08-20T10:56:08;8.10;;;1.30;;
58665;SDS011;44436;52.872;6.520;2022-08-20T10:58:34;11.07;;;1.13;;
58665;SDS011;44436;52.872;6.520;2022-08-20T11:01:00;6.68;;;1.35;;
58665;SDS011;44436;52.872;6.520;2022-08-20T11:03:25;6.57;;;1.15;;
58665;SDS011;44436;52.872;6.520;2022-08-20T11:05:51;4.55;;;1.00;;
58665;SDS011;44436;52.872;6.520;2022-08-20T11:08:17;7.25;;;1.38;;
58665;SDS011;44436;52.872;6.520;2022-08-20T11:10:42;6.35;;;1.33;;
58665;SDS011;44436;52.872;6.520;2022-08-20T11:13:08;6.38;;;1.02;;
58665;SDS011;44436;52.872;6.520;2022-08-20T11:15:36;7.38;;;1.25;;
58665;SDS011;44436;52.872;6.520;2022-08-20T11:18:06;6.60;;;1.60;;
58665;SDS011;44436;52.872;6.520;2022-08-20T11:20:33;11.32;;;1.67;;
58665;SDS011;44436;52.872;6.520;2022-08-20T11:22:59;5.85;;;1.10;;
58665;SDS011;44436;52.872;6.520;2022-08-20T11:25:25;4.53;;;1.40;;
58665;SDS011;44436;52.872;6.520;2022-08-20T11:27:51;6.43;;;1.10;;
58665;SDS011;44436;52.872;6.520;2022-08-20T11:30:19;5.80;;;1.10;;
58665;SDS011;44436;52.872;6.520;2022-08-20T11:32:47;5.65;;;1.40;;
58665;SDS011;44436;52.872;6.520;2022-08-20T11:35:13;5.53;;;1.65;;
58665;SDS011;44436;52.872;6.520;2022-08-20T11:37:39;5.57;;;1.30;;
58665;SDS011;44436;52.872;6.520;2022-08-20T11:40:05;4.65;;;1.20;;
58665;SDS011;44436;52.872;6.520;2022-08-20T11:42:32;5.80;;;1.40;;
58665;SDS011;44436;52.872;6.520;2022-08-20T11:44:59;5.53;;;1.27;;
58665;SDS011;44436;52.872;6.520;2022-08-20T11:47:26;6.82;;;1.50;;
58665;SDS011;44436;52.872;6.520;2022-08-20T11:49:55;5.55;;;1.85;;
58665;SDS011;44436;52.872;6.520;2022-08-20T11:52:26;4.88;;;1.02;;
58665;SDS011;44436;52.872;6.520;2022-08-20T11:54:52;7.85;;;1.85;;
58665;SDS011;44436;52.872;6.520;2022-08-20T11:57:21;7.35;;;1.58;;
58665;SDS011;44436;52.872;6.520;2022-08-20T11:59:49;6.75;;;1.65;;
58665;SDS011;44436;52.872;6.520;2022-08-20T12:02:16;5.68;;;1.33;;
58665;SDS011;44436;52.872;6.520;2022-08-20T12:04:42;5.88;;;1.50;;
58665;SDS011;44436;52.872;6.520;2022-08-20T12:07:12;5.10;;;1.45;;
58665;SDS011;44436;52.872;6.520;2022-08-20T12:09:39;8.95;;;1.50;;
58665;SDS011;44436;52.872;6.520;2022-08-20T12:12:05;7.60;;;1.40;;
58665;SDS011;44436;52.872;6.520;2022-08-20T12:14:32;5.60;;;1.63;;
58665;SDS011;44436;52.872;6.520;2022-08-20T12:17:06;7.18;;;1.88;;
58665;SDS011;44436;52.872;6.520;2022-08-20T12:19:35;7.47;;;1.67;;
58665;SDS011;44436;52.872;6.520;2022-08-20T12:22:02;5.20;;;1.25;;
58665;SDS011;44436;52.872;6.520;2022-08-20T12:24:28;5.32;;;1.70;;
58665;SDS011;44436;52.872;6.520;2022-08-20T12:26:53;9.48;;;1.90;;
58665;SDS011;44436;52.872;6.520;2022-08-20T12:29:19;3.72;;;1.23;;
58665;SDS011;44436;52.872;6.520;2022-08-20T12:31:45;7.30;;;1.60;;
58665;SDS011;44436;52.872;6.520;2022-08-20T12:34:10;6.75;;;1.77;;
58665;SDS011;44436;52.872;6.520;2022-08-20T12:36:36;4.78;;;1.70;;
58665;SDS011;44436;52.872;6.520;2022-08-20T12:39:01;5.97;;;1.30;;
58665;SDS011;44436;52.872;6.520;2022-08-20T12:41:27;9.13;;;1.90;;
58665;SDS011;44436;52.872;6.520;2022-08-20T12:43:53;6.47;;;1.10;;
58665;SDS011;44436;52.872;6.520;2022-08-20T12:46:18;5.40;;;1.60;;
58665;SDS011;44436;52.872;6.520;2022-08-20T12:48:44;6.63;;;1.40;;
58665;SDS011;44436;52.872;6.520;2022-08-20T12:51:10;6.55;;;1.45;;
58665;SDS011;44436;52.872;6.520;2022-08-20T12:53:35;7.63;;;1.30;;
58665;SDS011;44436;52.872;6.520;2022-08-20T12:56:02;6.15;;;1.30;;
58665;SDS011;44436;52.872;6.520;2022-08-20T12:58:28;6.68;;;1.35;;
58665;SDS011;44436;52.872;6.520;2022-08-20T13:00:54;2.97;;;1.10;;
58665;SDS011;44436;52.872;6.520;2022-08-20T13:03:20;5.68;;;1.50;;
58665;SDS011;44436;52.872;6.520;2022-08-20T13:05:45;6.13;;;1.38;;
58665;SDS011;44436;52.872;6.520;2022-08-20T13:08:13;7.13;;;1.80;;
58665;SDS011;44436;52.872;6.520;2022-08-20T13:10:40;5.80;;;1.40;;
58665;SDS011;44436;52.872;6.520;2022-08-20T13:13:08;5.35;;;1.42;;
58665;SDS011;44436;52.872;6.520;2022-08-20T13:15:35;6.95;;;1.25;;
58665;SDS011;44436;52.872;6.520;2022-08-20T13:18:02;5.47;;;1.38;;
58665;SDS011;44436;52.872;6.520;2022-08-20T13:20:28;5.97;;;1.10;;
58665;SDS011;44436;52.872;6.520;2022-08-20T13:22:54;9.25;;;1.67;;
58665;SDS011;44436;52.872;6.520;2022-08-20T13:25:21;5.13;;;1.40;;
58665;SDS011;44436;52.872;6.520;2022-08-20T13:27:47;5.82;;;1.30;;
58665;SDS011;44436;52.872;6.520;2022-08-20T13:30:16;6.68;;;1.60;;
58665;SDS011;44436;52.872;6.520;2022-08-20T13:32:43;7.53;;;1.55;;
58665;SDS011;44436;52.872;6.520;2022-08-20T13:35:09;5.75;;;1.38;;
58665;SDS011;44436;52.872;6.520;2022-08-20T13:37:35;4.55;;;1.40;;
58665;SDS011;44436;52.872;6.520;2022-08-20T13:40:02;5.95;;;1.80;;
58665;SDS011;44436;52.872;6.520;2022-08-20T13:42:29;6.00;;;1.73;;
58665;SDS011;44436;52.872;6.520;2022-08-20T13:44:54;7.93;;;1.35;;
58665;SDS011;44436;52.872;6.520;2022-08-20T13:47:24;5.43;;;1.48;;
58665;SDS011;44436;52.872;6.520;2022-08-20T13:49:58;6.50;;;1.30;;
58665;SDS011;44436;52.872;6.520;2022-08-20T13:52:27;6.15;;;1.60;;
58665;SDS011;44436;52.872;6.520;2022-08-20T13:54:53;6.32;;;1.55;;
58665;SDS011;44436;52.872;6.520;2022-08-20T13:57:19;7.07;;;1.50;;
58665;SDS011;44436;52.872;6.520;2022-08-20T13:59:48;7.82;;;1.50;;
58665;SDS011;44436;52.872;6.520;2022-08-20T14:02:15;5.43;;;1.35;;
58665;SDS011;44436;52.872;6.520;2022-08-20T14:04:42;7.45;;;1.42;;
58665;SDS011;44436;52.872;6.520;2022-08-20T14:07:11;4.32;;;1.20;;
58665;SDS011;44436;52.872;6.520;2022-08-20T14:09:38;6.00;;;1.55;;
58665;SDS011;44436;52.872;6.520;2022-08-20T14:12:05;3.15;;;1.48;;
58665;SDS011;44436;52.872;6.520;2022-08-20T14:14:31;6.95;;;1.50;;
58665;SDS011;44436;52.872;6.520;2022-08-20T14:16:57;5.15;;;1.58;;
58665;SDS011;44436;52.872;6.520;2022-08-20T14:19:23;4.57;;;1.30;;
58665;SDS011;44436;52.872;6.520;2022-08-20T14:21:48;4.88;;;1.50;;
58665;SDS011;44436;52.872;6.520;2022-08-20T14:24:14;6.93;;;1.67;;
58665;SDS011;44436;52.872;6.520;2022-08-20T14:26:39;5.72;;;1.67;;
58665;SDS011;44436;52.872;6.520;2022-08-20T14:29:05;6.85;;;2.33;;
58665;SDS011;44436;52.872;6.520;2022-08-20T14:31:31;6.95;;;1.60;;
58665;SDS011;44436;52.872;6.520;2022-08-20T14:33:56;9.00;;;2.00;;
58665;SDS011;44436;52.872;6.520;2022-08-20T14:36:22;8.52;;;1.45;;
58665;SDS011;44436;52.872;6.520;2022-08-20T14:38:48;5.97;;;1.45;;
58665;SDS011;44436;52.872;6.520;2022-08-20T14:41:13;6.65;;;1.60;;
58665;SDS011;44436;52.872;6.520;2022-08-20T14:43:39;8.38;;;1.60;;
58665;SDS011;44436;52.872;6.520;2022-08-20T14:46:04;5.47;;;1.90;;
58665;SDS011;44436;52.872;6.520;2022-08-20T14:48:30;7.82;;;1.83;;
58665;SDS011;44436;52.872;6.520;2022-08-20T14:50:56;5.75;;;1.60;;
58665;SDS011;44436;52.872;6.520;2022-08-20T14:53:23;5.32;;;1.08;;
58665;SDS011;44436;52.872;6.520;2022-08-20T14:55:49;6.95;;;1.65;;